Time;durP1;ratioP1;P1;durP2;ratioP2;P2;SDS_P1;SDS_P2;PMS_P1;PMS_P2;Temp;Humidity;BMP_temperature;BMP_pressure;BME280_temperature;BME280_humidity;BME280_pressure;Samples;Min_cycle;Max_cycle;Signal;HPM_P1;HPM_P2
2023/03/17 00:01:41;;;;;;;0.70;0.70;;;;;;;7.29;74.55;100763.25;5054496;28;20029;-62
2023/03/17 00:04:10;;;;;;;0.70;0.70;;;;;;;7.30;74.55;100758.66;5055660;28;20025;-62
2023/03/17 00:06:36;;;;;;;0.70;0.70;;;;;;;7.26;74.70;100760.13;5045556;28;20021;-62
2023/03/17 00:09:01;;;;;;;0.95;0.70;;;;;;;7.25;74.87;100767.50;5062385;28;20028;-62
2023/03/17 00:11:27;;;;;;;0.70;0.70;;;;;;;7.25;74.84;100767.50;5062981;28;20116;-62
2023/03/17 00:13:52;;;;;;;0.70;0.70;;;;;;;7.23;74.72;100752.34;5053966;28;20107;-62
2023/03/17 00:16:20;;;;;;;0.80;0.80;;;;;;;7.24;74.80;100746.66;5055821;28;20029;-62
2023/03/17 00:18:48;;;;;;;0.80;0.80;;;;;;;7.20;74.52;100742.69;5046131;28;20056;-62
2023/03/17 00:21:15;;;;;;;0.80;0.80;;;;;;;7.16;74.88;100746.06;5043948;28;20035;-62
2023/03/17 00:23:46;;;;;;;0.73;0.73;;;;;;;7.15;74.87;100738.91;5048751;28;20075;-61
2023/03/17 00:26:11;;;;;;;0.80;0.80;;;;;;;7.10;74.72;100731.34;5063785;28;20029;-62
2023/03/17 00:28:37;;;;;;;0.88;0.85;;;;;;;7.05;75.16;100727.59;5063538;28;20035;-62
2023/03/17 00:31:10;;;;;;;0.80;0.80;;;;;;;7.00;75.60;100720.03;5053312;28;20029;-62
2023/03/17 00:33:36;;;;;;;0.77;0.77;;;;;;;6.95;75.80;100712.44;5065969;28;20163;-62
2023/03/17 00:36:01;;;;;;;0.70;0.70;;;;;;;6.89;76.28;100706.97;5053581;28;20108;-62
2023/03/17 00:38:26;;;;;;;0.70;0.70;;;;;;;6.84;76.63;100712.22;5048267;28;20033;-62
2023/03/17 00:40:52;;;;;;;0.70;0.70;;;;;;;6.79;76.80;100718.31;5049681;28;20044;-62
2023/03/17 00:43:17;;;;;;;0.77;0.77;;;;;;;6.81;76.28;100720.84;5058312;28;20645;-62
2023/03/17 00:45:43;;;;;;;0.95;0.80;;;;;;;6.82;75.76;100720.63;5055476;28;20036;-62
2023/03/17 00:48:14;;;;;;;0.88;0.88;;;;;;;6.86;76.65;100718.34;5063743;28;20025;-62
2023/03/17 00:50:40;;;;;;;0.80;0.80;;;;;;;6.89;75.74;100717.88;5039281;28;20031;-62
2023/03/17 00:53:09;;;;;;;0.90;0.90;;;;;;;6.92;75.57;100706.56;5044933;28;20119;-62
2023/03/17 00:55:35;;;;;;;0.80;0.73;;;;;;;6.93;75.27;100708.25;5051570;28;20025;-61
2023/03/17 00:58:00;;;;;;;0.80;0.80;;;;;;;6.95;75.49;100712.44;5048672;28;20029;-62
2023/03/17 01:00:28;;;;;;;0.85;0.85;;;;;;;6.94;75.33;100713.47;5062931;28;20025;-61
2023/03/17 01:02:55;;;;;;;0.80;0.80;;;;;;;6.95;75.25;100698.81;5055937;28;20578;-63
2023/03/17 01:05:23;;;;;;;0.80;0.80;;;;;;;6.96;75.29;100699.63;5061751;28;20529;-63
2023/03/17 01:07:52;;;;;;;0.85;0.80;;;;;;;6.99;74.45;100699.19;5051809;28;20020;-61
2023/03/17 01:10:24;;;;;;;0.70;0.70;;;;;;;6.97;74.60;100698.59;5056505;28;20023;-62
2023/03/17 01:12:50;;;;;;;0.70;0.70;;;;;;;6.98;74.45;100695.63;5065398;28;20112;-62
2023/03/17 01:15:17;;;;;;;0.80;0.80;;;;;;;7.00;74.69;100701.75;5066992;28;20056;-62
2023/03/17 01:17:43;;;;;;;0.80;0.80;;;;;;;6.99;74.51;100707.38;5054725;28;20024;-62
2023/03/17 01:20:15;;;;;;;0.90;0.90;;;;;;;7.07;73.97;100699.00;5066945;28;20039;-62
2023/03/17 01:22:41;;;;;;;0.90;0.90;;;;;;;7.06;73.58;100694.59;5062105;28;20055;-62
2023/03/17 01:25:07;;;;;;;0.70;0.70;;;;;;;7.03;73.75;100700.47;5062524;28;20057;-61
2023/03/17 01:27:35;;;;;;;0.70;0.70;;;;;;;6.99;73.85;100691.00;5046770;28;20124;-62
2023/03/17 01:30:02;;;;;;;0.80;0.80;;;;;;;6.92;74.37;100684.72;5054994;28;20533;-62
2023/03/17 01:32:28;;;;;;;0.77;0.77;;;;;;;6.86;74.67;100688.31;5057261;28;20040;-62
2023/03/17 01:34:53;;;;;;;0.73;0.73;;;;;;;6.80;74.56;100691.88;5065909;28;20032;-62
2023/03/17 01:37:20;;;;;;;0.70;0.70;;;;;;;6.78;74.95;100683.88;5060874;28;20118;-61
2023/03/17 01:39:46;;;;;;;0.80;0.80;;;;;;;6.75;75.05;100692.50;5053943;28;20135;-61
2023/03/17 01:42:12;;;;;;;0.80;0.80;;;;;;;6.73;75.32;100676.31;5058610;28;20028;-62
2023/03/17 01:45:03;;;;;;;0.80;0.80;;;;;;;6.74;75.11;100683.47;5057453;28;20024;-62
2023/03/17 01:47:31;;;;;;;0.80;0.80;;;;;;;6.72;74.92;100688.28;5051741;28;20041;-62
2023/03/17 01:50:06;;;;;;;0.70;0.70;;;;;;;6.73;74.97;100680.94;5052132;28;20036;-62
2023/03/17 01:52:34;;;;;;;0.70;0.70;;;;;;;6.73;75.16;100680.94;5046141;28;20424;-62
2023/03/17 01:55:05;;;;;;;0.75;0.75;;;;;;;6.71;74.52;100683.06;5060391;28;20423;-62
2023/03/17 01:57:38;;;;;;;0.95;0.80;;;;;;;6.69;74.99;100683.28;5055377;28;20472;-62
2023/03/17 02:00:10;;;;;;;0.80;0.80;;;;;;;6.63;75.47;100675.88;5063976;28;20438;-62
2023/03/17 02:02:38;;;;;;;0.75;0.75;;;;;;;6.65;74.56;100668.34;5056031;28;20024;-61
2023/03/17 02:05:08;;;;;;;0.77;0.77;;;;;;;6.65;74.48;100662.91;5048631;28;20043;-62
2023/03/17 02:07:34;;;;;;;0.70;0.70;;;;;;;6.64;74.94;100661.22;5054062;28;20045;-61
2023/03/17 02:10:01;;;;;;;1.02;0.82;;;;;;;6.59;75.11;100657.41;5055398;28;20108;-61
2023/03/17 02:12:27;;;;;;;0.90;0.90;;;;;;;6.59;75.30;100655.56;5063876;28;20237;-62
2023/03/17 02:14:53;;;;;;;0.80;0.80;;;;;;;6.61;74.59;100650.72;5045831;28;20029;-62
2023/03/17 02:17:20;;;;;;;0.80;0.80;;;;;;;6.61;74.86;100642.53;5054001;28;20502;-62
2023/03/17 02:19:46;;;;;;;0.80;0.80;;;;;;;6.64;74.95;100644.84;5055675;28;20378;-61
2023/03/17 02:22:11;;;;;;;0.80;0.80;;;;;;;6.62;75.00;100648.81;5054018;28;20099;-62
2023/03/17 02:24:42;;;;;;;0.80;0.80;;;;;;;6.62;74.85;100646.94;5055982;28;20127;-62
2023/03/17 02:27:13;;;;;;;0.80;0.80;;;;;;;6.60;75.48;100649.03;5054920;28;20123;-61
2023/03/17 02:29:39;;;;;;;0.80;0.80;;;;;;;6.61;74.73;100650.72;5061095;28;20021;-62
2023/03/17 02:32:05;;;;;;;0.80;0.80;;;;;;;6.61;74.76;100639.81;5059747;28;20044;-61
2023/03/17 02:34:31;;;;;;;0.90;0.88;;;;;;;6.64;75.00;100646.72;5061176;28;20016;-62
2023/03/17 02:36:57;;;;;;;0.80;0.80;;;;;;;6.65;74.59;100632.03;5042874;28;20932;-61
2023/03/17 02:39:23;;;;;;;0.80;0.80;;;;;;;6.66;74.51;100628.25;5060770;28;20039;-62
2023/03/17 02:41:48;;;;;;;0.70;0.70;;;;;;;6.70;74.06;100634.97;5047456;28;20033;-62
2023/03/17 02:44:14;;;;;;;0.70;0.70;;;;;;;6.69;74.55;100627.81;5053949;28;20388;-62
2023/03/17 02:46:40;;;;;;;0.75;0.75;;;;;;;6.70;74.57;100619.44;5060528;28;20476;-62
2023/03/17 02:49:05;;;;;;;0.73;0.73;;;;;;;6.69;74.29;100630.53;5052199;28;20430;-62
2023/03/17 02:51:31;;;;;;;0.80;0.80;;;;;;;6.69;74.82;100620.50;5058576;28;20032;-62
2023/03/17 02:53:56;;;;;;;0.90;0.90;;;;;;;6.68;74.26;100626.97;5048418;28;20512;-62
2023/03/17 02:56:22;;;;;;;0.70;0.70;;;;;;;6.67;74.40;100627.19;5060978;28;20395;-62
2023/03/17 02:58:47;;;;;;;0.70;0.70;;;;;;;6.66;75.14;100622.81;5061554;28;20116;-62
2023/03/17 03:01:13;;;;;;;0.73;0.73;;;;;;;6.65;75.38;100621.97;5047855;28;20029;-62
2023/03/17 03:03:38;;;;;;;0.80;0.80;;;;;;;6.64;74.60;100617.56;5045885;28;20028;-61
2023/03/17 03:06:03;;;;;;;0.70;0.70;;;;;;;6.65;74.98;100618.41;5064036;28;20037;-62
2023/03/17 03:08:29;;;;;;;0.80;0.80;;;;;;;6.62;74.51;100618.81;5063786;28;20043;-62
2023/03/17 03:10:55;;;;;;;0.80;0.80;;;;;;;6.62;74.92;100633.28;5052571;28;20020;-62
2023/03/17 03:13:20;;;;;;;0.80;0.80;;;;;;;6.58;74.92;100642.94;5048549;28;20032;-62
2023/03/17 03:15:46;;;;;;;0.70;0.70;;;;;;;6.57;75.07;100626.78;5050458;28;20391;-62
2023/03/17 03:18:11;;;;;;;0.80;0.80;;;;;;;6.61;74.63;100623.44;5059228;28;20082;-62
2023/03/17 03:20:37;;;;;;;0.80;0.80;;;;;;;6.62;74.57;100630.56;5064175;28;20067;-61
2023/03/17 03:23:02;;;;;;;0.80;0.80;;;;;;;6.62;74.73;100627.00;5051153;28;20482;-62
2023/03/17 03:25:28;;;;;;;0.82;0.82;;;;;;;6.62;74.50;100621.53;5058618;28;20032;-62
2023/03/17 03:27:53;;;;;;;0.90;0.90;;;;;;;6.61;74.50;100631.63;5061900;28;20063;-62
2023/03/17 03:30:19;;;;;;;0.80;0.80;;;;;;;6.62;74.65;100633.28;5065448;28;20161;-63
2023/03/17 03:32:45;;;;;;;0.90;0.90;;;;;;;6.62;74.35;100636.00;5056842;28;20025;-62
2023/03/17 03:35:10;;;;;;;0.75;0.75;;;;;;;6.62;74.38;100635.19;5057119;28;20028;-62
2023/03/17 03:37:36;;;;;;;0.80;0.80;;;;;;;6.63;74.21;100639.59;5063891;28;20021;-62
2023/03/17 03:40:02;;;;;;;0.80;0.80;;;;;;;6.63;74.30;100637.69;5061247;28;20525;-62
2023/03/17 03:42:27;;;;;;;0.70;0.70;;;;;;;6.60;74.71;100632.66;5051851;28;20108;-62
2023/03/17 03:44:52;;;;;;;0.80;0.80;;;;;;;6.59;74.09;100631.00;5055768;28;20039;-62
2023/03/17 03:47:17;;;;;;;0.80;0.80;;;;;;;6.59;74.70;100646.50;5053239;28;20044;-61
2023/03/17 03:49:43;;;;;;;0.95;0.88;;;;;;;6.56;74.54;100642.31;5054292;28;20361;-62
2023/03/17 03:52:08;;;;;;;0.70;0.70;;;;;;;6.53;74.94;100642.72;5064274;28;20036;-62
2023/03/17 03:54:34;;;;;;;0.82;0.82;;;;;;;6.51;74.67;100653.03;5052725;28;20056;-62
2023/03/17 03:56:59;;;;;;;0.80;0.80;;;;;;;6.48;75.06;100654.25;5055739;28;20074;-62
2023/03/17 03:59:24;;;;;;;0.80;0.80;;;;;;;6.46;74.79;100653.66;5062409;28;20116;-62
2023/03/17 04:01:49;;;;;;;0.80;0.80;;;;;;;6.41;75.38;100653.44;5049357;28;20353;-62
2023/03/17 04:04:15;;;;;;;0.70;0.70;;;;;;;6.42;74.91;100655.09;5068661;28;20024;-62
2023/03/17 04:06:40;;;;;;;0.90;0.90;;;;;;;6.41;75.41;100668.97;5066803;28;20107;-62
2023/03/17 04:09:06;;;;;;;0.80;0.80;;;;;;;6.37;75.65;100660.34;5068649;28;20389;-62
2023/03/17 04:11:31;;;;;;;0.70;0.70;;;;;;;6.38;75.45;100655.72;5050355;28;20029;-62
2023/03/17 04:13:57;;;;;;;0.80;0.80;;;;;;;6.41;74.82;100656.16;5066888;28;20116;-62
2023/03/17 04:16:22;;;;;;;0.80;0.80;;;;;;;6.39;74.86;100660.16;5060415;28;20063;-62
2023/03/17 04:18:47;;;;;;;0.85;0.85;;;;;;;6.37;75.37;100660.34;5058688;28;20040;-61
2023/03/17 04:21:17;;;;;;;0.75;0.75;;;;;;;6.36;75.43;100652.38;5052127;28;20033;-62
2023/03/17 04:23:42;;;;;;;0.82;0.80;;;;;;;6.38;74.86;100658.44;5063131;28;20025;-64
2023/03/17 04:26:07;;;;;;;0.80;0.80;;;;;;;6.41;75.06;100655.31;5059813;28;20595;-64
2023/03/17 04:28:33;;;;;;;0.93;0.88;;;;;;;6.42;74.88;100649.66;5052877;28;20029;-64
2023/03/17 04:30:58;;;;;;;0.80;0.80;;;;;;;6.44;74.54;100657.66;5052727;28;20036;-65
2023/03/17 04:33:24;;;;;;;0.75;0.75;;;;;;;6.44;74.55;100657.66;5053834;28;20040;-64
2023/03/17 04:35:49;;;;;;;0.80;0.80;;;;;;;6.43;74.89;100658.66;5056211;28;20017;-64
2023/03/17 04:38:14;;;;;;;0.98;0.90;;;;;;;6.44;75.02;100660.38;5050676;28;20036;-64
2023/03/17 04:40:39;;;;;;;0.80;0.80;;;;;;;6.43;74.99;100661.41;5061533;28;20150;-65
2023/03/17 04:43:05;;;;;;;0.82;0.82;;;;;;;6.43;75.09;100658.66;5055826;28;20036;-64
2023/03/17 04:45:30;;;;;;;0.90;0.90;;;;;;;6.45;75.10;100659.31;5054265;28;20029;-64
2023/03/17 04:47:55;;;;;;;0.80;0.80;;;;;;;6.44;74.83;100660.38;5062993;28;20041;-64
2023/03/17 04:50:21;;;;;;;0.80;0.80;;;;;;;6.44;74.72;100663.09;5058031;28;20048;-62
2023/03/17 04:52:46;;;;;;;0.90;0.90;;;;;;;6.43;75.23;100662.22;5048391;28;20045;-62
2023/03/17 04:55:11;;;;;;;0.80;0.80;;;;;;;6.45;75.05;100656.59;5058293;28;20155;-62
2023/03/17 04:57:37;;;;;;;0.80;0.80;;;;;;;6.45;74.64;100653.88;5057993;28;20024;-62
2023/03/17 05:00:05;;;;;;;0.75;0.75;;;;;;;6.43;75.79;100658.66;5061106;28;20079;-62
2023/03/17 05:02:30;;;;;;;1.00;0.90;;;;;;;6.40;75.97;100661.81;5053358;28;20034;-63
2023/03/17 05:04:56;;;;;;;0.80;0.80;;;;;;;6.37;75.48;100659.50;5065498;28;20279;-62
2023/03/17 05:07:21;;;;;;;0.80;0.80;;;;;;;6.35;76.18;100651.53;5052934;28;20029;-62
2023/03/17 05:09:46;;;;;;;0.82;0.80;;;;;;;6.35;76.10;100646.09;5060833;28;20064;-62
2023/03/17 05:12:12;;;;;;;0.90;0.90;;;;;;;6.31;76.82;100644.81;5065052;28;20033;-62
2023/03/17 05:14:38;;;;;;;0.65;0.65;;;;;;;6.28;76.49;100641.66;5060895;28;20479;-64
2023/03/17 05:17:03;;;;;;;0.80;0.80;;;;;;;6.24;77.54;100636.63;5064824;28;20031;-65
2023/03/17 05:19:29;;;;;;;1.23;0.88;;;;;;;6.21;76.99;100639.75;5059894;28;20025;-64
2023/03/17 05:21:54;;;;;;;0.80;0.80;;;;;;;6.22;77.06;100641.44;5043122;28;20041;-64
2023/03/17 05:24:20;;;;;;;0.70;0.70;;;;;;;6.21;77.67;100638.94;5061128;28;20055;-64
2023/03/17 05:26:46;;;;;;;0.80;0.80;;;;;;;6.20;77.16;100646.28;5046221;28;20116;-65
2023/03/17 05:29:12;;;;;;;0.75;0.75;;;;;;;6.19;77.38;100651.94;5062598;28;20029;-64
2023/03/17 05:31:37;;;;;;;0.70;0.70;;;;;;;6.18;77.91;100653.84;5055892;28;20450;-64
2023/03/17 05:34:04;;;;;;;0.80;0.80;;;;;;;6.17;78.23;100649.41;5055814;28;20069;-64
2023/03/17 05:36:30;;;;;;;0.80;0.80;;;;;;;6.16;77.87;100653.19;5064535;28;20470;-64
2023/03/17 05:38:56;;;;;;;0.80;0.80;;;;;;;6.17;77.92;100649.41;5050143;28;20021;-64
2023/03/17 05:41:22;;;;;;;1.00;0.90;;;;;;;6.19;77.82;100657.41;5053617;28;20130;-64
2023/03/17 05:43:47;;;;;;;0.80;0.80;;;;;;;6.18;78.14;100661.13;5057832;28;20037;-64
2023/03/17 05:46:13;;;;;;;0.82;0.82;;;;;;;6.16;77.80;100664.09;5064747;28;20080;-65
2023/03/17 05:48:38;;;;;;;0.80;0.80;;;;;;;6.18;77.30;100664.75;5058612;28;20027;-65
2023/03/17 05:51:04;;;;;;;1.00;1.00;;;;;;;6.16;78.30;100661.34;5052012;28;20056;-65
2023/03/17 05:53:30;;;;;;;1.35;0.80;;;;;;;6.11;78.68;100652.97;5051339;28;20040;-64
2023/03/17 05:55:55;;;;;;;0.80;0.80;;;;;;;6.06;78.95;100657.34;5066304;28;20028;-65
2023/03/17 05:58:21;;;;;;;0.80;0.80;;;;;;;6.03;79.37;100655.03;5063937;28;20032;-65
2023/03/17 06:00:46;;;;;;;0.80;0.80;;;;;;;5.98;80.08;100647.47;5050069;28;20028;-62
2023/03/17 06:03:12;;;;;;;0.90;0.90;;;;;;;5.93;80.35;100642.66;5054171;28;20387;-63
2023/03/17 06:05:37;;;;;;;0.70;0.70;;;;;;;5.89;80.77;100641.34;5049807;28;20033;-63
2023/03/17 06:08:04;;;;;;;0.90;0.90;;;;;;;5.87;81.34;100650.75;5060575;28;20032;-63
2023/03/17 06:10:30;;;;;;;0.80;0.80;;;;;;;5.84;81.51;100643.00;5043642;28;20020;-63
2023/03/17 06:12:57;;;;;;;0.90;0.85;;;;;;;5.85;81.49;100639.22;5045326;28;20443;-63
2023/03/17 06:15:23;;;;;;;0.80;0.80;;;;;;;5.86;81.61;100641.75;5064625;28;20349;-62
2023/03/17 06:17:48;;;;;;;0.90;0.90;;;;;;;5.91;81.34;100650.19;5059854;28;20087;-62
2023/03/17 06:20:14;;;;;;;0.80;0.80;;;;;;;5.96;80.90;100646.84;5061306;28;20044;-63
2023/03/17 06:22:40;;;;;;;0.80;0.80;;;;;;;6.01;80.53;100636.16;5051663;28;20028;-63
2023/03/17 06:25:05;;;;;;;0.80;0.80;;;;;;;6.06;80.82;100646.44;5058554;28;20025;-63
2023/03/17 06:27:31;;;;;;;0.80;0.80;;;;;;;6.13;80.47;100642.69;5053426;28;20048;-63
2023/03/17 06:29:57;;;;;;;1.23;1.00;;;;;;;6.22;79.90;100635.16;5054286;28;20500;-64
2023/03/17 06:32:23;;;;;;;0.90;0.90;;;;;;;6.31;79.28;100650.28;5050841;28;20029;-63
2023/03/17 06:34:48;;;;;;;0.90;0.90;;;;;;;6.39;79.85;100651.97;5058807;28;20025;-63
2023/03/17 06:37:14;;;;;;;0.90;0.90;;;;;;;6.46;78.96;100652.81;5047230;28;20048;-62
2023/03/17 06:39:41;;;;;;;0.95;0.90;;;;;;;6.52;79.20;100651.97;5059660;28;20375;-63
2023/03/17 06:42:06;;;;;;;0.70;0.70;;;;;;;6.58;78.28;100648.38;5053927;28;20029;-62
2023/03/17 06:44:32;;;;;;;1.00;0.90;;;;;;;6.66;78.47;100659.13;5059545;28;20077;-62
2023/03/17 06:46:57;;;;;;;0.90;0.90;;;;;;;6.73;77.71;100651.75;5054725;28;20098;-63
2023/03/17 06:49:23;;;;;;;0.95;0.90;;;;;;;6.76;78.97;100648.63;5060158;28;20029;-63
2023/03/17 06:51:48;;;;;;;0.80;0.80;;;;;;;6.87;77.14;100646.28;5045328;28;20510;-63
2023/03/17 06:54:13;;;;;;;1.00;0.88;;;;;;;6.97;77.22;100654.91;5054995;28;20021;-63
2023/03/17 06:56:39;;;;;;;0.80;0.80;;;;;;;7.05;77.00;100643.78;5045548;28;20520;-63
2023/03/17 06:59:04;;;;;;;0.77;0.73;;;;;;;7.14;76.86;100656.13;5059407;28;20021;-63
2023/03/17 07:01:30;;;;;;;0.82;0.80;;;;;;;7.23;76.90;100654.00;5060251;28;20028;-64
2023/03/17 07:03:55;;;;;;;0.90;0.85;;;;;;;7.33;75.34;100648.09;5044899;28;20464;-63
2023/03/17 07:06:22;;;;;;;1.58;0.90;;;;;;;7.44;76.06;100651.00;5051050;28;20052;-63
2023/03/17 07:08:48;;;;;;;0.80;0.80;;;;;;;7.51;75.09;100649.09;5053720;28;20653;-63
2023/03/17 07:11:13;;;;;;;0.90;0.90;;;;;;;7.61;74.98;100656.00;5047522;28;20104;-63
2023/03/17 07:13:39;;;;;;;1.02;0.90;;;;;;;7.71;75.08;100661.88;5044686;28;20036;-63
2023/03/17 07:16:05;;;;;;;0.90;0.90;;;;;;;7.79;74.12;100656.97;5042170;28;20431;-63
2023/03/17 07:18:32;;;;;;;0.90;0.90;;;;;;;7.88;73.80;100646.63;5045704;28;20028;-68
2023/03/17 07:20:58;;;;;;;0.82;0.82;;;;;;;7.98;73.80;100648.91;5045362;28;20163;-66
2023/03/17 07:23:23;;;;;;;0.70;0.70;;;;;;;8.05;73.25;100652.44;5046851;28;20017;-66
2023/03/17 07:25:50;;;;;;;0.80;0.80;;;;;;;8.16;73.04;100657.22;5046929;28;20353;-65
2023/03/17 07:28:15;;;;;;;0.82;0.82;;;;;;;8.24;72.52;100656.94;5045212;28;20033;-66
2023/03/17 07:30:45;;;;;;;0.80;0.80;;;;;;;8.36;71.67;100656.22;5048467;28;20028;-63
2023/03/17 07:33:11;;;;;;;1.08;0.80;;;;;;;8.43;71.79;100646.13;5050902;28;20061;-67
2023/03/17 07:35:36;;;;;;;0.80;0.80;;;;;;;8.48;71.34;100647.13;5048111;28;20079;-62
2023/03/17 07:38:01;;;;;;;0.90;0.90;;;;;;;8.58;71.50;100642.00;5048189;28;20125;-66
2023/03/17 07:40:27;;;;;;;0.85;0.85;;;;;;;8.68;70.47;100633.28;5057590;28;20032;-66
2023/03/17 07:42:52;;;;;;;0.80;0.80;;;;;;;8.70;70.39;100631.16;5050502;28;20129;-67
2023/03/17 07:45:17;;;;;;;0.80;0.80;;;;;;;8.79;69.72;100626.25;5048829;28;20026;-67
2023/03/17 07:47:43;;;;;;;1.02;0.90;;;;;;;8.81;69.93;100624.94;5049358;28;20052;-66
2023/03/17 07:50:09;;;;;;;0.70;0.70;;;;;;;8.91;71.32;100623.59;5049252;28;20586;-66
2023/03/17 07:52:35;;;;;;;1.08;0.90;;;;;;;9.01;69.18;100634.88;5048604;28;20036;-63
2023/03/17 07:55:01;;;;;;;0.80;0.80;;;;;;;9.07;69.16;100644.94;5049343;28;20379;-66
2023/03/17 07:57:27;;;;;;;1.00;0.80;;;;;;;9.17;69.31;100645.25;5049956;28;20062;-66
2023/03/17 07:59:52;;;;;;;1.05;0.90;;;;;;;9.31;68.10;100624.03;5049831;28;20020;-66
2023/03/17 08:02:18;;;;;;;0.70;0.70;;;;;;;9.35;67.69;100644.44;5050155;28;20464;-67
2023/03/17 08:04:44;;;;;;;1.05;0.85;;;;;;;9.45;67.68;100652.13;5054316;28;21138;-67
2023/03/17 08:07:10;;;;;;;0.90;0.80;;;;;;;9.60;67.29;100644.38;5045299;28;20036;-67
2023/03/17 08:09:36;;;;;;;0.93;0.80;;;;;;;9.76;67.37;100641.00;5041368;28;20418;-67
2023/03/17 08:12:02;;;;;;;0.73;0.73;;;;;;;9.94;66.15;100650.28;5049877;28;20013;-64
2023/03/17 08:14:28;;;;;;;1.05;0.77;;;;;;;10.07;66.04;100652.81;5047034;28;20036;-66
2023/03/17 08:16:54;;;;;;;0.80;0.80;;;;;;;10.12;64.42;100642.81;5040548;28;20175;-66
2023/03/17 08:19:20;;;;;;;0.80;0.80;;;;;;;10.16;64.87;100632.22;5045017;28;20604;-67
2023/03/17 08:21:46;;;;;;;0.98;0.90;;;;;;;10.27;65.04;100638.84;5044237;28;20040;-66
2023/03/17 08:24:11;;;;;;;1.10;0.80;;;;;;;10.30;64.67;100646.63;5059830;28;20134;-66
2023/03/17 08:26:37;;;;;;;0.88;0.82;;;;;;;10.44;64.18;100647.25;5047587;28;20028;-66
2023/03/17 08:29:03;;;;;;;1.40;0.80;;;;;;;10.53;63.37;100645.84;5048754;28;20334;-65
2023/03/17 08:31:29;;;;;;;0.82;0.80;;;;;;;10.59;63.72;100642.16;5048895;28;20033;-66
2023/03/17 08:33:57;;;;;;;1.48;0.90;;;;;;;10.69;63.13;100627.84;5046014;28;20384;-64
2023/03/17 08:36:23;;;;;;;0.88;0.80;;;;;;;10.76;63.16;100637.66;5054035;28;20066;-66
2023/03/17 08:38:49;;;;;;;1.42;0.82;;;;;;;10.85;61.88;100636.25;5046935;28;20025;-66
2023/03/17 08:41:17;;;;;;;1.20;0.70;;;;;;;10.96;62.29;100631.00;5048829;28;20383;-65
2023/03/17 08:43:44;;;;;;;1.10;0.75;;;;;;;11.04;61.93;100628.69;5048606;28;20056;-65
2023/03/17 08:46:17;;;;;;;0.95;0.85;;;;;;;11.25;61.02;100621.75;5044939;28;20119;-65
2023/03/17 08:48:45;;;;;;;1.00;0.80;;;;;;;11.40;60.82;100610.25;5048570;28;20357;-63
2023/03/17 08:51:11;;;;;;;0.80;0.80;;;;;;;11.51;61.14;100611.34;5038160;28;20479;-66
2023/03/17 08:53:37;;;;;;;0.80;0.73;;;;;;;11.65;60.46;100616.28;5042552;28;20409;-66
2023/03/17 08:56:06;;;;;;;0.68;0.68;;;;;;;11.78;58.20;100617.94;5045430;28;20265;-66
2023/03/17 08:58:32;;;;;;;0.93;0.80;;;;;;;11.95;60.26;100623.53;5045609;28;20052;-65
2023/03/17 09:00:59;;;;;;;0.77;0.73;;;;;;;12.31;57.76;100632.47;5047735;28;20024;-64
2023/03/17 09:03:24;;;;;;;0.73;0.70;;;;;;;12.69;56.41;100632.59;5048146;28;20056;-67
2023/03/17 09:05:50;;;;;;;1.83;0.80;;;;;;;12.92;55.13;100623.31;5051213;28;20479;-67
2023/03/17 09:08:16;;;;;;;0.57;0.57;;;;;;;13.17;55.47;100624.78;5044728;28;20033;-67
2023/03/17 09:10:41;;;;;;;0.60;0.60;;;;;;;13.32;55.36;100622.28;5043876;28;20028;-67
2023/03/17 09:13:07;;;;;;;0.68;0.60;;;;;;;13.43;55.51;100624.13;5048612;28;20045;-67
2023/03/17 09:15:33;;;;;;;0.70;0.60;;;;;;;13.43;54.42;100626.00;5046109;28;20055;-66
2023/03/17 09:17:58;;;;;;;0.95;0.70;;;;;;;13.42;53.74;100618.84;5046740;28;20108;-63
2023/03/17 09:20:24;;;;;;;0.90;0.70;;;;;;;13.40;54.54;100623.78;5050697;28;20029;-66
2023/03/17 09:22:50;;;;;;;1.33;0.70;;;;;;;13.38;56.13;100613.00;5048913;28;20028;-66
2023/03/17 09:25:15;;;;;;;1.85;0.70;;;;;;;13.32;55.04;100619.53;5045078;28;20447;-64
2023/03/17 09:27:41;;;;;;;0.80;0.70;;;;;;;13.09;55.49;100619.72;5045850;28;20051;-66
2023/03/17 09:30:08;;;;;;;0.70;0.65;;;;;;;13.02;56.91;100611.59;5047972;28;20052;-67
2023/03/17 09:32:33;;;;;;;0.70;0.65;;;;;;;13.10;58.07;100621.38;5046308;28;20025;-66
2023/03/17 09:34:59;;;;;;;0.93;0.70;;;;;;;13.20;56.04;100624.28;5041811;28;20072;-67
2023/03/17 09:37:25;;;;;;;0.90;0.70;;;;;;;13.63;55.80;100614.41;5046619;28;20417;-67
2023/03/17 09:39:50;;;;;;;0.73;0.73;;;;;;;14.24;53.67;100620.63;5041639;28;20060;-63
2023/03/17 09:42:33;;;;;;;1.73;0.70;;;;;;;14.59;52.51;100613.81;5053212;28;20025;-67
2023/03/17 09:45:13;;;;;;;0.70;0.70;;;;;;;14.79;52.19;100609.28;5032742;28;20384;-66
2023/03/17 09:48:16;;;;;;;0.98;0.60;;;;;;;14.36;52.69;100609.44;5043243;28;20688;-66
2023/03/17 09:51:01;;;;;;;0.70;0.70;;;;;;;13.94;54.90;100608.19;5039515;28;20422;-64
2023/03/17 09:53:33;;;;;;;0.63;0.63;;;;;;;13.55;54.70;100621.22;5043513;28;20376;-62
2023/03/17 09:56:05;;;;;;;1.17;0.60;;;;;;;13.35;54.87;100630.06;5044659;28;20113;-66
2023/03/17 09:58:32;;;;;;;1.08;0.80;;;;;;;13.29;56.52;100638.53;5030588;28;20029;-67
2023/03/17 10:00:58;;;;;;;0.77;0.70;;;;;;;13.38;56.22;100631.47;5042644;28;20029;-66
2023/03/17 10:03:24;;;;;;;1.00;0.80;;;;;;;13.39;56.16;100634.00;5044218;28;20037;-66
2023/03/17 10:05:50;;;;;;;2.33;0.80;;;;;;;13.36;55.47;100636.41;5040071;28;20061;-66
2023/03/17 10:08:24;;;;;;;0.70;0.70;;;;;;;13.35;56.65;100632.81;5043919;28;20035;-66
2023/03/17 10:10:58;;;;;;;0.70;0.60;;;;;;;13.35;56.58;100643.03;5037942;28;20543;-66
2023/03/17 10:13:42;;;;;;;0.60;0.60;;;;;;;13.34;56.89;100649.63;5043160;28;20036;-66
2023/03/17 10:16:13;;;;;;;0.60;0.57;;;;;;;13.37;57.02;100658.22;5038215;28;20041;-67
2023/03/17 10:19:04;;;;;;;0.70;0.70;;;;;;;13.48;57.44;100657.28;5045051;28;20107;-66
2023/03/17 10:21:33;;;;;;;1.00;0.70;;;;;;;13.42;56.41;100660.22;5047007;28;20151;-67
2023/03/17 10:24:02;;;;;;;0.70;0.70;;;;;;;13.42;57.15;100650.00;5047072;28;20025;-65
2023/03/17 10:26:38;;;;;;;;;;;;;;;13.56;57.81;100664.28;5047686;28;20021;-65
2023/03/17 10:29:11;;;;;;;0.73;0.70;;;;;;;13.53;56.85;100684.09;5044859;28;19928;-66
2023/03/17 10:31:38;;;;;;;0.60;0.60;;;;;;;13.71;56.06;100680.22;5045579;28;20024;-67
2023/03/17 10:34:12;;;;;;;0.50;0.50;;;;;;;13.89;57.01;100674.38;5046191;28;20056;-66
2023/03/17 10:36:43;;;;;;;0.57;0.57;;;;;;;14.13;55.72;100666.66;5053692;28;20039;-62
2023/03/17 10:39:17;;;;;;;0.55;0.55;;;;;;;14.54;54.60;100667.94;5050206;28;20387;-65
2023/03/17 10:42:10;;;;;;;0.80;0.50;;;;;;;15.21;54.46;100665.75;5043216;28;20067;-63
2023/03/17 10:44:42;;;;;;;0.70;0.70;;;;;;;15.56;52.71;100663.22;5025296;28;20617;-66
2023/03/17 10:47:19;;;;;;;0.50;0.50;;;;;;;16.05;52.82;100673.97;5034814;28;20098;-65
2023/03/17 10:49:45;;;;;;;0.88;0.50;;;;;;;16.39;49.49;100665.22;5031792;28;20029;-63
2023/03/17 10:52:19;;;;;;;0.75;0.60;;;;;;;17.39;48.83;100664.72;5044018;28;20056;-66
2023/03/17 10:54:50;;;;;;;0.55;0.47;;;;;;;18.47;45.39;100659.56;5042026;28;20037;-65
2023/03/17 10:57:17;;;;;;;0.40;0.40;;;;;;;19.14;42.33;100657.94;5054086;28;20037;-66
2023/03/17 10:59:49;;;;;;;0.75;0.45;;;;;;;19.03;43.26;100662.78;5044588;28;20099;-66
2023/03/17 11:02:23;;;;;;;0.40;0.32;;;;;;;18.62;43.79;100654.72;5039407;28;20505;-67
2023/03/17 11:04:49;;;;;;;0.40;0.40;;;;;;;18.30;44.60;100646.06;5041487;28;20484;-63
2023/03/17 11:07:25;;;;;;;0.50;0.50;;;;;;;18.38;44.91;100645.44;5050591;28;20029;-66
2023/03/17 11:09:57;;;;;;;0.50;0.50;;;;;;;19.04;43.19;100652.47;5039177;28;20022;-66
2023/03/17 11:12:25;;;;;;;0.52;0.50;;;;;;;18.88;44.37;100640.66;5050378;28;20075;-66
2023/03/17 11:14:59;;;;;;;0.50;0.45;;;;;;;18.80;45.42;100630.97;5055586;28;20285;-66
2023/03/17 11:17:46;;;;;;;0.43;0.43;;;;;;;19.91;44.44;100633.72;5050298;28;20021;-66
2023/03/17 11:20:17;;;;;;;0.40;0.40;;;;;;;20.98;41.75;100634.97;5047652;28;20116;-65
2023/03/17 11:22:53;;;;;;;0.40;0.40;;;;;;;21.96;39.63;100625.56;5046769;28;20447;-63
2023/03/17 11:25:19;;;;;;;0.30;0.30;;;;;;;22.40;36.09;100616.44;5046112;28;20032;-65
2023/03/17 11:27:52;;;;;;;0.40;0.40;;;;;;;22.69;36.77;100610.44;5049897;28;20033;-65
2023/03/17 11:30:38;;;;;;;0.88;0.30;;;;;;;22.62;38.05;100612.03;5048551;28;20399;-66
2023/03/17 11:33:27;;;;;;;0.50;0.40;;;;;;;21.87;38.61;100613.44;5049462;28;20399;-65